Time;durP1;ratioP1;P1;durP2;ratioP2;P2;SDS_P1;SDS_P2;PMS_P1;PMS_P2;Temp;Humidity;BMP_temperature;BMP_pressure;BME280_temperature;BME280_humidity;BME280_pressure;Samples;Min_cycle;Max_cycle;Signal;HPM_P1;HPM_P2
2023/03/19 00:02:23;;;;;;;19.23;9.02;;;;;;;6.84;71.80;100411.44;5100061;28;20043;-78
2023/03/19 00:04:49;;;;;;;19.15;10.68;;;;;;;6.81;71.83;100412.28;5082569;28;20039;-78
2023/03/19 00:07:15;;;;;;;16.20;9.32;;;;;;;6.78;72.65;100422.78;5084734;28;20060;-78
2023/03/19 00:09:41;;;;;;;16.77;9.85;;;;;;;6.76;72.67;100420.16;5101974;28;20093;-78
2023/03/19 00:12:07;;;;;;;16.58;9.85;;;;;;;6.79;72.18;100429.78;5099859;28;20040;-77
2023/03/19 00:14:32;;;;;;;16.50;9.63;;;;;;;6.84;71.44;100427.19;5100280;28;20032;-78
2023/03/19 00:16:58;;;;;;;17.90;9.90;;;;;;;6.86;72.71;100417.59;5098702;28;20100;-78
2023/03/19 00:19:24;;;;;;;17.00;9.15;;;;;;;6.85;72.53;100419.34;5098251;28;20481;-78
2023/03/19 00:21:50;;;;;;;16.45;9.15;;;;;;;6.81;72.17;100417.53;5100163;28;20028;-78
2023/03/19 00:24:16;;;;;;;17.42;8.35;;;;;;;6.80;72.80;100415.81;5095356;28;20490;-78
2023/03/19 00:26:42;;;;;;;18.17;9.18;;;;;;;6.78;72.16;100417.53;5102598;28;20509;-78
2023/03/19 00:29:08;;;;;;;20.15;10.02;;;;;;;6.77;72.33;100423.66;5098711;28;20074;-78
2023/03/19 00:31:33;;;;;;;16.75;9.13;;;;;;;6.69;73.39;100417.47;5100007;28;20044;-77
2023/03/19 00:33:59;;;;;;;15.93;9.02;;;;;;;6.65;72.99;100424.41;5081657;28;20051;-78
2023/03/19 00:36:27;;;;;;;18.00;9.13;;;;;;;6.68;73.03;100423.56;5102336;28;20463;-77
2023/03/19 00:38:52;;;;;;;15.43;8.85;;;;;;;6.73;72.79;100419.22;5081539;28;20067;-78
2023/03/19 00:41:19;;;;;;;16.05;9.40;;;;;;;6.67;77.33;100425.31;5102499;28;20067;-77
2023/03/19 00:43:45;;;;;;;15.35;8.43;;;;;;;6.65;75.23;100421.78;5083405;28;20545;-78
2023/03/19 00:46:11;;;;;;;15.50;9.57;;;;;;;6.77;74.42;100421.03;5100562;28;20441;-78
2023/03/19 00:48:37;;;;;;;17.13;8.80;;;;;;;6.84;74.71;100422.84;5082704;28;20077;-78
2023/03/19 00:51:07;;;;;;;17.13;8.95;;;;;;;6.85;73.65;100421.09;5100843;28;20090;-78
2023/03/19 00:53:41;;;;;;;16.27;9.20;;;;;;;6.89;73.20;100421.13;5100050;28;20032;-78
2023/03/19 00:56:07;;;;;;;14.98;8.82;;;;;;;6.72;75.82;100422.75;5097363;28;20031;-78
2023/03/19 00:58:33;;;;;;;18.25;9.20;;;;;;;6.67;75.13;100424.44;5095000;22;20079;-75
2023/03/19 01:01:00;;;;;;;13.98;8.93;;;;;;;6.67;75.61;100421.81;5083737;28;20040;-76
2023/03/19 01:03:26;;;;;;;16.85;9.13;;;;;;;6.70;75.08;100420.09;5073658;28;20086;-75
2023/03/19 01:05:51;;;;;;;17.05;8.65;;;;;;;6.73;74.69;100424.47;5073480;28;20029;-76
2023/03/19 01:08:18;;;;;;;15.63;8.93;;;;;;;6.77;74.77;100426.28;5083967;28;20490;-75
2023/03/19 01:10:44;;;;;;;19.30;8.38;;;;;;;6.84;74.28;100422.84;5082947;28;20067;-75
2023/03/19 01:13:11;;;;;;;15.80;8.63;;;;;;;6.88;74.55;100419.34;5084821;28;20382;-76
2023/03/19 01:15:41;;;;;;;14.30;8.32;;;;;;;6.95;73.88;100418.53;5083184;28;20035;-76
2023/03/19 01:18:08;;;;;;;15.30;9.73;;;;;;;6.97;73.70;100408.06;5066129;28;20028;-75
2023/03/19 01:20:34;;;;;;;15.15;8.75;;;;;;;7.02;73.06;100416.81;5065086;28;20077;-75
2023/03/19 01:23:00;;;;;;;17.70;9.05;;;;;;;7.07;72.24;100420.34;5083457;28;20035;-76
2023/03/19 01:25:26;;;;;;;14.50;8.73;;;;;;;7.00;74.37;100414.19;5064648;28;20028;-76
2023/03/19 01:27:59;;;;;;;18.42;9.07;;;;;;;7.01;73.81;100415.06;5081950;28;20032;-76
2023/03/19 01:30:25;;;;;;;15.57;8.48;;;;;;;7.06;74.33;100417.72;5083928;28;20185;-75
2023/03/19 01:33:10;;;;;;;17.45;8.27;;;;;;;7.07;73.48;100419.47;5083342;28;20507;-76
2023/03/19 01:35:58;;;;;;;11.80;7.63;;;;;;;7.11;73.52;100421.28;5081444;28;20033;-76
2023/03/19 01:38:26;;;;;;;16.20;8.88;;;;;;;7.10;74.92;100419.50;5064788;28;20060;-76
2023/03/19 01:40:56;;;;;;;14.85;8.32;;;;;;;7.04;75.47;100420.34;5083397;28;20070;-75
2023/03/19 01:43:27;;;;;;;17.98;8.85;;;;;;;7.05;74.05;100419.47;5073690;28;20564;-75
2023/03/19 01:46:05;;;;;;;14.95;8.43;;;;;;;7.07;73.75;100422.09;5054503;28;20028;-75
2023/03/19 01:48:53;;;;;;;16.65;8.98;;;;;;;7.09;73.67;100418.63;5077580;28;20691;-75
2023/03/19 01:51:24;;;;;;;17.63;9.02;;;;;;;7.10;73.48;100409.91;5065491;28;20085;-76
2023/03/19 01:54:08;;;;;;;20.63;9.23;;;;;;;7.11;72.76;100410.78;5059510;28;20032;-75
2023/03/19 01:56:42;;;;;;;15.55;8.52;;;;;;;7.14;72.79;100406.41;5063384;28;20024;-76
2023/03/19 01:59:25;;;;;;;14.73;9.13;;;;;;;7.18;72.72;100396.81;5084472;28;20040;-76
2023/03/19 02:02:24;;;;;;;18.70;9.93;;;;;;;7.22;72.58;100403.81;5055499;28;20567;-76
2023/03/19 02:04:52;;;;;;;15.32;8.02;;;;;;;7.22;74.16;100396.81;5066814;28;20029;-75
2023/03/19 02:07:19;;;;;;;15.95;8.68;;;;;;;7.19;74.90;100396.81;5072418;28;20409;-75
2023/03/19 02:09:44;;;;;;;15.43;9.40;;;;;;;7.20;74.59;100402.94;5064114;28;20040;-75
2023/03/19 02:12:11;;;;;;;15.80;8.98;;;;;;;7.21;74.46;100392.44;5082401;28;20036;-76
2023/03/19 02:14:37;;;;;;;14.70;8.05;;;;;;;7.23;73.94;100389.81;5083365;28;20033;-76
2023/03/19 02:17:02;;;;;;;14.00;7.72;;;;;;;7.24;74.07;100391.59;5064393;28;20394;-75
2023/03/19 02:19:47;;;;;;;18.85;8.10;;;;;;;7.23;74.38;100384.56;5083096;28;20036;-75
2023/03/19 02:22:15;;;;;;;15.98;9.00;;;;;;;7.20;74.56;100381.94;5079595;28;20103;-75
2023/03/19 02:24:50;;;;;;;18.38;9.63;;;;;;;7.19;75.60;100382.81;5081530;28;20028;-75
2023/03/19 02:27:18;;;;;;;15.95;9.65;;;;;;;7.19;75.21;100388.06;5080103;28;20040;-75
2023/03/19 02:29:46;;;;;;;16.95;9.20;;;;;;;7.16;74.81;100385.44;5077292;28;20040;-75
2023/03/19 02:32:12;;;;;;;14.93;8.50;;;;;;;7.15;75.24;100396.78;5084304;28;20156;-75
2023/03/19 02:34:40;;;;;;;17.05;9.55;;;;;;;7.17;74.90;100400.28;5080706;28;20036;-76
2023/03/19 02:37:20;;;;;;;17.98;9.82;;;;;;;7.20;74.01;100397.69;5083833;28;20039;-75
2023/03/19 02:39:54;;;;;;;18.30;9.70;;;;;;;7.17;74.20;100384.53;5081610;28;20038;-76
2023/03/19 02:42:23;;;;;;;17.50;9.52;;;;;;;7.19;74.12;100393.31;5058403;28;20043;-75
2023/03/19 02:44:48;;;;;;;15.15;8.38;;;;;;;7.17;74.22;100382.78;5083079;28;20040;-75
2023/03/19 02:47:14;;;;;;;16.85;8.15;;;;;;;7.17;74.61;100390.66;5062884;28;20040;-75
2023/03/19 02:49:40;;;;;;;15.75;8.82;;;;;;;7.14;74.82;100401.16;5080467;28;20040;-76
2023/03/19 02:52:05;;;;;;;16.48;8.65;;;;;;;7.12;74.75;100396.75;5082093;28;20085;-76
2023/03/19 02:54:30;;;;;;;17.52;9.63;;;;;;;7.00;74.83;100398.47;5081151;28;20051;-75
2023/03/19 02:56:56;;;;;;;18.05;9.20;;;;;;;6.90;75.11;100401.00;5083053;28;20071;-76
2023/03/19 02:59:21;;;;;;;14.18;8.70;;;;;;;6.87;75.74;100401.88;5062656;28;20033;-76
2023/03/19 03:01:47;;;;;;;14.88;8.13;;;;;;;6.85;75.92;100403.59;5081246;28;20040;-75
2023/03/19 03:04:15;;;;;;;18.65;9.93;;;;;;;6.83;75.67;100414.94;5081265;28;20028;-76
2023/03/19 03:06:41;;;;;;;15.18;8.10;;;;;;;6.80;75.61;100406.19;5082244;28;20051;-75
2023/03/19 03:09:06;;;;;;;14.13;8.07;;;;;;;6.83;76.04;100409.69;5081046;28;20040;-75
2023/03/19 03:11:31;;;;;;;15.05;7.95;;;;;;;6.82;76.29;100414.06;5080622;28;20041;-76
2023/03/19 03:13:56;;;;;;;15.70;8.90;;;;;;;6.79;75.76;100414.94;5063669;28;20085;-75
2023/03/19 03:16:22;;;;;;;16.13;8.70;;;;;;;6.79;75.68;100408.81;5063752;28;20115;-75
2023/03/19 03:18:47;;;;;;;15.63;8.45;;;;;;;6.78;75.99;100412.28;5081735;28;20392;-77
2023/03/19 03:21:13;;;;;;;13.18;7.78;;;;;;;6.72;76.02;100407.88;5081110;28;20127;-75
2023/03/19 03:23:38;;;;;;;17.45;9.13;;;;;;;6.70;77.03;100408.72;5079038;28;20120;-75
2023/03/19 03:26:05;;;;;;;16.13;9.20;;;;;;;6.67;77.24;100400.84;5081690;28;20032;-75
2023/03/19 03:28:31;;;;;;;12.73;7.72;;;;;;;6.65;77.92;100406.06;5079218;28;20048;-75
2023/03/19 03:30:58;;;;;;;16.08;9.25;;;;;;;6.65;77.01;100402.56;5080863;28;20036;-75
2023/03/19 03:33:24;;;;;;;15.90;9.23;;;;;;;6.66;77.12;100401.72;5080416;28;20085;-75
2023/03/19 03:35:49;;;;;;;16.20;8.57;;;;;;;6.68;76.94;100405.22;5082657;28;20024;-76
2023/03/19 03:38:15;;;;;;;15.20;8.98;;;;;;;6.69;76.77;100409.59;5079795;28;20080;-75
2023/03/19 03:40:41;;;;;;;14.63;8.63;;;;;;;6.72;76.74;100405.25;5082545;28;20067;-75
2023/03/19 03:43:06;;;;;;;14.15;7.90;;;;;;;6.68;75.92;100406.13;5079076;28;20036;-75
2023/03/19 03:45:33;;;;;;;14.13;8.65;;;;;;;6.51;78.06;100405.97;5064270;28;20078;-76
2023/03/19 03:47:59;;;;;;;14.52;8.48;;;;;;;6.43;78.81;100414.63;5074252;28;20452;-75
2023/03/19 03:50:24;;;;;;;15.57;8.05;;;;;;;6.43;78.87;100420.75;5064727;28;20047;-76
2023/03/19 03:52:52;;;;;;;17.30;8.02;;;;;;;6.50;78.45;100422.56;5078531;28;20028;-76
2023/03/19 03:55:18;;;;;;;15.68;8.35;;;;;;;6.55;78.36;100426.09;5081428;28;20035;-75
2023/03/19 03:57:43;;;;;;;13.98;7.65;;;;;;;6.64;78.61;100435.78;5061470;28;20024;-75
2023/03/19 04:00:09;;;;;;;14.82;9.30;;;;;;;6.72;77.58;100431.47;5063850;28;20086;-76
2023/03/19 04:02:43;;;;;;;18.58;8.68;;;;;;;6.84;76.72;100421.94;5062880;28;20051;-75
2023/03/19 04:05:12;;;;;;;16.90;8.75;;;;;;;6.94;75.96;100415.88;5079166;28;20542;-75
2023/03/19 04:07:37;;;;;;;16.23;8.32;;;;;;;7.01;75.80;100417.69;5067309;28;20031;-76
2023/03/19 04:10:04;;;;;;;17.98;9.27;;;;;;;7.00;76.78;100418.56;5078607;28;20521;-76
2023/03/19 04:12:30;;;;;;;15.07;9.43;;;;;;;6.99;76.57;100415.03;5081852;28;20039;-75
2023/03/19 04:14:55;;;;;;;15.75;8.43;;;;;;;6.97;76.71;100408.94;5079848;28;20016;-75
2023/03/19 04:17:22;;;;;;;16.73;8.55;;;;;;;7.02;76.20;100417.72;5062014;28;20028;-76
2023/03/19 04:19:48;;;;;;;14.73;8.32;;;;;;;7.08;76.39;100410.75;5062676;28;20020;-75
2023/03/19 04:22:13;;;;;;;14.93;8.40;;;;;;;7.11;76.52;100416.03;5076741;28;20027;-75
2023/03/19 04:24:39;;;;;;;14.52;8.30;;;;;;;7.15;75.37;100407.28;5060968;28;20053;-76
2023/03/19 04:27:06;;;;;;;14.05;8.10;;;;;;;7.17;74.95;100416.91;5081675;28;20090;-75
2023/03/19 04:29:32;;;;;;;16.63;8.35;;;;;;;7.12;74.98;100405.50;5060148;28;20024;-76
2023/03/19 04:31:58;;;;;;;15.43;8.38;;;;;;;7.11;74.72;100410.78;5083678;28;20032;-75
2023/03/19 04:34:24;;;;;;;15.45;8.30;;;;;;;7.11;74.80;100414.25;5083361;28;20471;-76
2023/03/19 04:36:50;;;;;;;13.95;7.85;;;;;;;7.13;75.10;100411.66;5086086;28;20040;-75
2023/03/19 04:39:17;;;;;;;16.10;8.60;;;;;;;7.13;75.35;100411.66;5083920;28;20032;-75
2023/03/19 04:41:42;;;;;;;13.45;6.80;;;;;;;7.13;75.61;100420.41;5082513;28;20517;-75
2023/03/19 04:44:23;;;;;;;16.98;9.07;;;;;;;7.17;75.88;100421.28;5081961;28;20530;-75
2023/03/19 04:46:48;;;;;;;14.23;8.45;;;;;;;7.21;75.39;100412.56;5068020;28;20051;-75
2023/03/19 04:49:15;;;;;;;14.38;8.27;;;;;;;7.24;74.76;100407.34;5062958;28;20118;-76
2023/03/19 04:51:41;;;;;;;16.08;8.10;;;;;;;7.28;73.83;100414.34;5081418;28;20032;-75
2023/03/19 04:54:07;;;;;;;14.40;8.52;;;;;;;7.27;73.15;100415.22;5068523;28;20560;-75
2023/03/19 04:56:33;;;;;;;14.20;7.75;;;;;;;7.25;73.51;100420.47;5079286;28;20036;-75
2023/03/19 04:58:58;;;;;;;16.67;8.55;;;;;;;7.29;73.36;100420.50;5066642;28;20405;-75
2023/03/19 05:01:24;;;;;;;17.00;8.48;;;;;;;7.33;73.56;100420.50;5064793;28;20029;-75
2023/03/19 05:03:58;;;;;;;17.58;8.88;;;;;;;7.36;73.32;100407.41;5081793;28;20553;-75
2023/03/19 05:06:25;;;;;;;13.98;7.82;;;;;;;7.37;73.88;100416.16;5082642;28;20108;-76
2023/03/19 05:08:51;;;;;;;16.90;8.95;;;;;;;7.37;73.20;100409.16;5067320;28;20078;-76
2023/03/19 05:11:18;;;;;;;17.13;8.88;;;;;;;7.37;73.27;100411.78;5067126;28;20036;-76
2023/03/19 05:13:56;;;;;;;13.98;8.05;;;;;;;7.36;73.15;100412.66;5077334;28;20066;-75
2023/03/19 05:16:22;;;;;;;16.70;8.43;;;;;;;7.34;73.18;100411.78;5080408;28;20113;-76
2023/03/19 05:18:48;;;;;;;16.23;8.23;;;;;;;7.33;73.61;100411.75;5083779;28;20039;-77
2023/03/19 05:21:14;;;;;;;14.77;7.57;;;;;;;7.30;73.45;100409.13;5077636;28;20028;-75
2023/03/19 05:23:41;;;;;;;15.00;8.15;;;;;;;7.25;72.88;100415.22;5083335;28;20028;-75
2023/03/19 05:26:08;;;;;;;13.10;7.50;;;;;;;7.25;73.29;100411.72;5064844;28;20024;-76
2023/03/19 05:28:54;;;;;;;17.35;8.68;;;;;;;7.24;72.73;100420.47;5077375;28;20044;-75
2023/03/19 05:31:27;;;;;;;15.18;8.57;;;;;;;7.23;73.07;100416.06;5083245;28;20505;-76
2023/03/19 05:33:53;;;;;;;15.68;8.40;;;;;;;7.25;72.65;100422.22;5083205;28;20036;-76
2023/03/19 05:36:18;;;;;;;12.82;7.47;;;;;;;7.34;72.99;100418.78;5082665;28;20034;-75
2023/03/19 05:39:04;;;;;;;15.80;8.02;;;;;;;7.42;73.28;100423.19;5076744;28;20240;-76
2023/03/19 05:41:34;;;;;;;16.17;8.05;;;;;;;7.53;72.29;100419.75;5083547;28;20032;-75
2023/03/19 05:44:03;;;;;;;17.92;9.07;;;;;;;7.63;72.53;100419.78;5064664;28;20516;-76
2023/03/19 05:46:46;;;;;;;14.38;8.30;;;;;;;7.76;71.51;100422.47;5076480;28;20089;-76
2023/03/19 05:49:13;;;;;;;13.85;7.93;;;;;;;7.75;73.06;100426.81;5066592;28;20517;-75
2023/03/19 05:51:39;;;;;;;13.35;7.65;;;;;;;7.78;73.61;100428.56;5079972;28;20027;-75
2023/03/19 05:54:06;;;;;;;16.63;7.95;;;;;;;7.80;73.57;100435.59;5066286;28;20032;-75
2023/03/19 05:56:35;;;;;;;15.70;8.60;;;;;;;7.61;73.86;100425.91;5081076;28;20024;-76
2023/03/19 05:59:30;;;;;;;14.52;7.93;;;;;;;7.54;74.60;100442.50;5063517;28;20055;-76
2023/03/19 06:02:12;;;;;;;17.15;8.93;;;;;;;7.61;72.73;100439.03;5083861;28;20115;-76
2023/03/19 06:04:38;;;;;;;13.70;7.70;;;;;;;7.66;72.21;100442.56;5080862;28;20521;-76
2023/03/19 06:07:05;;;;;;;15.38;8.60;;;;;;;7.72;72.28;100434.69;5063558;28;20108;-75
2023/03/19 06:09:33;;;;;;;13.23;7.03;;;;;;;7.82;72.74;100433.84;5082465;28;20036;-75
2023/03/19 06:11:59;;;;;;;13.98;8.38;;;;;;;7.89;72.39;100433.00;5081915;28;20040;-75
2023/03/19 06:14:42;;;;;;;14.23;8.18;;;;;;;7.96;72.42;100436.53;5083573;28;20036;-75
2023/03/19 06:17:28;;;;;;;13.02;7.88;;;;;;;8.01;72.88;100434.78;5081042;28;20514;-75
2023/03/19 06:19:58;;;;;;;12.93;7.72;;;;;;;8.04;72.26;100439.16;5062648;28;20437;-75
2023/03/19 06:22:23;;;;;;;16.98;7.43;;;;;;;8.07;72.56;100445.34;5084083;28;20063;-76
2023/03/19 06:24:48;;;;;;;15.27;8.70;;;;;;;8.07;72.45;100447.97;5063280;28;20051;-75
2023/03/19 06:27:14;;;;;;;17.42;8.23;;;;;;;8.08;72.28;100449.72;5082268;28;20124;-75
2023/03/19 06:29:39;;;;;;;15.02;8.68;;;;;;;8.10;71.53;100447.09;5065792;28;20028;-75
2023/03/19 06:32:16;;;;;;;14.82;8.15;;;;;;;8.17;71.53;100445.34;5060472;28;20028;-76
2023/03/19 06:34:41;;;;;;;15.98;8.80;;;;;;;8.24;70.93;100450.63;5079965;28;20078;-76
2023/03/19 06:37:07;;;;;;;16.05;9.48;;;;;;;8.32;71.00;100448.00;5079324;28;20486;-76
2023/03/19 06:39:33;;;;;;;16.33;9.02;;;;;;;8.42;69.80;100447.19;5082636;28;20035;-76
2023/03/19 06:41:59;;;;;;;16.98;8.20;;;;;;;8.52;69.60;100454.22;5081956;28;20450;-75
2023/03/19 06:44:25;;;;;;;13.82;8.35;;;;;;;8.63;69.37;100454.22;5081142;28;20031;-76
2023/03/19 06:46:51;;;;;;;16.50;9.35;;;;;;;8.74;69.37;100451.59;5082272;28;20517;-75
2023/03/19 06:49:16;;;;;;;17.13;8.30;;;;;;;8.87;68.99;100455.09;5081430;28;20557;-75
2023/03/19 06:51:42;;;;;;;17.55;8.90;;;;;;;8.98;68.54;100463.84;5081920;28;20044;-76
2023/03/19 06:54:07;;;;;;;14.38;8.07;;;;;;;9.10;67.40;100465.59;5081456;28;20075;-77
2023/03/19 06:56:33;;;;;;;13.63;8.10;;;;;;;9.17;66.87;100470.88;5082380;28;20040;-76
2023/03/19 06:58:58;;;;;;;13.73;7.75;;;;;;;9.30;66.49;100471.72;5096368;22;20063;-73
2023/03/19 07:01:23;;;;;;;14.65;7.38;;;;;;;9.42;66.70;100466.41;5060713;28;20052;-74
2023/03/19 07:03:49;;;;;;;14.80;7.45;;;;;;;9.57;65.96;100470.78;5062355;28;20033;-74
2023/03/19 07:06:14;;;;;;;16.13;8.77;;;;;;;9.70;65.36;100476.00;5060801;28;20040;-74
2023/03/19 07:08:44;;;;;;;14.95;7.57;;;;;;;9.80;65.51;100477.75;5061913;28;20141;-73
2023/03/19 07:11:11;;;;;;;14.55;7.65;;;;;;;9.92;65.12;100482.94;5067122;28;20036;-73
2023/03/19 07:13:37;;;;;;;15.35;8.10;;;;;;;10.00;64.16;100486.41;5063290;28;20021;-74
2023/03/19 07:16:02;;;;;;;15.73;7.97;;;;;;;10.12;63.36;100484.63;5059919;28;20031;-74
2023/03/19 07:18:28;;;;;;;14.15;7.72;;;;;;;10.16;62.02;100494.25;5063398;28;20517;-74
2023/03/19 07:20:53;;;;;;;17.13;8.82;;;;;;;10.16;59.99;100486.34;5063007;28;20410;-74
2023/03/19 07:23:18;;;;;;;15.73;8.43;;;;;;;10.07;61.24;100487.28;5063177;28;20492;-74
2023/03/19 07:25:44;;;;;;;15.50;8.23;;;;;;;10.13;61.18;100486.34;5059518;28;20029;-74
2023/03/19 07:28:09;;;;;;;15.27;7.97;;;;;;;10.24;60.72;100488.06;5062865;28;20044;-74
2023/03/19 07:30:37;;;;;;;12.95;7.25;;;;;;;10.28;61.04;100481.03;5059305;28;20104;-74
2023/03/19 07:33:02;;;;;;;12.80;7.53;;;;;;;10.43;60.54;100483.59;5065222;28;20058;-73
2023/03/19 07:35:27;;;;;;;15.70;7.93;;;;;;;10.56;60.47;100481.75;5062707;28;20530;-74
2023/03/19 07:37:53;;;;;;;13.57;7.55;;;;;;;10.74;59.97;100486.91;5060087;28;20040;-74
2023/03/19 07:40:18;;;;;;;17.02;8.30;;;;;;;10.97;59.08;100494.59;5061793;28;20435;-74
2023/03/19 07:42:43;;;;;;;17.10;8.20;;;;;;;11.22;59.12;100496.19;5060411;28;20614;-74
2023/03/19 07:45:09;;;;;;;15.32;7.57;;;;;;;11.46;58.07;100488.00;5050778;28;20029;-74
2023/03/19 07:47:35;;;;;;;12.43;7.90;;;;;;;11.68;57.66;100491.28;5063168;28;20847;-74
2023/03/19 07:50:00;;;;;;;14.27;8.15;;;;;;;11.88;56.86;100492.88;5061610;28;20082;-74
2023/03/19 07:52:26;;;;;;;14.35;7.55;;;;;;;12.05;56.45;100486.47;5059046;28;20059;-74
2023/03/19 07:54:52;;;;;;;14.57;8.05;;;;;;;12.19;56.00;100486.28;5068341;28;20039;-74
2023/03/19 07:57:18;;;;;;;16.13;9.10;;;;;;;12.37;56.02;100484.28;5061619;28;20089;-74
2023/03/19 07:59:44;;;;;;;13.80;7.65;;;;;;;12.55;55.25;100485.75;5059690;28;20037;-74
2023/03/19 08:02:12;;;;;;;15.57;8.23;;;;;;;12.68;55.11;100476.72;5061273;28;20041;-74
2023/03/19 08:04:38;;;;;;;12.57;7.65;;;;;;;12.87;54.48;100480.00;5065832;28;20033;-75
2023/03/19 08:07:04;;;;;;;13.75;7.28;;;;;;;12.90;54.06;100479.94;5064213;28;20068;-72
2023/03/19 08:09:29;;;;;;;15.43;7.78;;;;;;;13.00;53.42;100476.22;5064231;28;20455;-72
2023/03/19 08:11:55;;;;;;;14.98;7.35;;;;;;;13.09;53.98;100483.13;5065893;28;20044;-72
2023/03/19 08:14:21;;;;;;;14.13;7.35;;;;;;;13.33;53.87;100479.22;5064656;28;20080;-72
2023/03/19 08:16:47;;;;;;;17.88;8.10;;;;;;;13.51;53.69;100484.16;5069072;28;20513;-72
2023/03/19 08:19:13;;;;;;;13.85;8.05;;;;;;;13.76;53.14;100483.72;5063086;28;20441;-72
2023/03/19 08:21:38;;;;;;;13.50;7.78;;;;;;;14.03;52.22;100483.13;5066210;28;20048;-72
2023/03/19 08:24:03;;;;;;;12.13;7.00;;;;;;;14.24;51.40;100478.25;5067674;28;20039;-72
2023/03/19 08:26:31;;;;;;;17.95;8.88;;;;;;;14.19;51.37;100477.50;5048847;28;20028;-72
2023/03/19 08:28:57;;;;;;;12.85;7.55;;;;;;;14.37;51.37;100482.38;5062749;28;20115;-72
2023/03/19 08:31:22;;;;;;;11.48;7.43;;;;;;;14.63;51.40;100479.16;5066721;28;20105;-72
2023/03/19 08:33:47;;;;;;;12.60;7.07;;;;;;;14.77;50.87;100481.47;5062817;28;20098;-72
2023/03/19 08:36:13;;;;;;;12.55;7.65;;;;;;;14.79;48.33;100471.69;5062239;28;20064;-72
2023/03/19 08:38:38;;;;;;;12.60;7.32;;;;;;;14.71;49.68;100473.69;5066173;28;20101;-72
2023/03/19 08:41:05;;;;;;;15.88;7.72;;;;;;;14.73;50.18;100468.34;5062647;28;20029;-72
2023/03/19 08:43:32;;;;;;;12.18;7.30;;;;;;;14.79;50.34;100474.34;5066160;28;20083;-72
2023/03/19 08:45:58;;;;;;;14.45;7.88;;;;;;;14.79;50.40;100463.72;5063187;28;20049;-72
2023/03/19 08:48:23;;;;;;;13.05;7.72;;;;;;;14.65;49.54;100465.88;5069527;28;20036;-72
2023/03/19 08:50:58;;;;;;;13.45;7.82;;;;;;;14.64;49.59;100470.28;5065055;28;20512;-72
2023/03/19 08:53:24;;;;;;;14.38;8.48;;;;;;;14.61;49.20;100474.81;5064231;28;20574;-72
2023/03/19 08:55:52;;;;;;;13.70;7.85;;;;;;;14.43;49.57;100471.63;5063569;28;20037;-72
2023/03/19 08:58:18;;;;;;;14.30;7.50;;;;;;;14.40;49.18;100470.81;5065277;28;20406;-71
2023/03/19 09:00:43;;;;;;;12.82;7.68;;;;;;;14.43;50.34;100470.75;5064593;28;20033;-72
2023/03/19 09:03:08;;;;;;;12.80;7.32;;;;;;;14.57;50.35;100479.31;5047338;28;20119;-72
2023/03/19 09:05:34;;;;;;;12.85;7.32;;;;;;;14.71;50.33;100480.78;5062850;28;20036;-71
2023/03/19 09:08:00;;;;;;;14.98;8.45;;;;;;;14.82;50.19;100478.72;5065517;28;20047;-71
2023/03/19 09:10:25;;;;;;;13.32;7.22;;;;;;;14.85;50.03;100481.31;5065986;28;20410;-72
2023/03/19 09:12:51;;;;;;;12.50;7.00;;;;;;;14.93;49.64;100476.66;5066044;28;20036;-72
2023/03/19 09:15:16;;;;;;;13.60;7.78;;;;;;;15.02;49.75;100476.44;5061983;28;20037;-72
2023/03/19 09:17:41;;;;;;;14.77;8.50;;;;;;;15.17;49.74;100477.84;5065082;28;20056;-72
2023/03/19 09:20:09;;;;;;;13.68;7.40;;;;;;;15.36;49.29;100474.72;5065212;28;20036;-72
2023/03/19 09:22:34;;;;;;;14.13;8.05;;;;;;;15.52;48.72;100471.56;5049295;28;20127;-72
2023/03/19 09:24:59;;;;;;;11.00;7.03;;;;;;;15.70;48.70;100480.88;5065660;28;20402;-72
2023/03/19 09:27:25;;;;;;;12.98;6.95;;;;;;;15.76;48.38;100486.00;5065265;28;20410;-72
2023/03/19 09:29:50;;;;;;;15.70;8.07;;;;;;;15.63;48.05;100473.06;5067770;28;20040;-72
2023/03/19 09:32:16;;;;;;;13.52;7.13;;;;;;;15.67;48.45;100486.25;5064861;28;20037;-72
2023/03/19 09:34:41;;;;;;;13.00;7.35;;;;;;;15.70;48.29;100485.34;5063817;28;20112;-72
2023/03/19 09:37:07;;;;;;;12.60;7.28;;;;;;;15.72;48.47;100481.72;5065067;28;20036;-72
2023/03/19 09:39:32;;;;;;;11.90;7.57;;;;;;;15.81;48.32;100474.38;5061938;28;20089;-73
2023/03/19 09:42:24;;;;;;;11.77;7.13;;;;;;;15.88;47.37;100479.50;5066971;28;20044;-72
2023/03/19 09:44:51;;;;;;;13.53;6.37;;;;;;;15.83;48.32;100475.22;5061826;28;20037;-72
2023/03/19 09:47:35;;;;;;;13.73;8.18;;;;;;;15.78;47.13;100478.88;5047007;28;20287;-72
2023/03/19 09:50:10;;;;;;;11.65;6.57;;;;;;;15.78;47.49;100480.66;5061270;28;20414;-73
2023/03/19 09:53:01;;;;;;;11.27;7.45;;;;;;;15.72;47.69;100479.06;5068078;28;20115;-73
2023/03/19 09:55:26;;;;;;;14.63;7.03;;;;;;;15.81;48.27;100490.34;5061632;28;20518;-72
2023/03/19 09:57:54;;;;;;;12.18;7.03;;;;;;;16.02;48.04;100476.41;5065376;28;20055;-73
2023/03/19 10:00:24;;;;;;;14.27;7.82;;;;;;;16.06;46.79;100486.06;5063784;28;20078;-73
2023/03/19 10:02:57;;;;;;;13.15;8.02;;;;;;;16.08;47.21;100478.00;5064192;28;20434;-73
2023/03/19 10:05:31;;;;;;;12.02;7.22;;;;;;;16.21;46.86;100472.25;5062386;28;20051;-72
2023/03/19 10:08:05;;;;;;;12.93;6.72;;;;;;;16.29;46.71;100471.16;5064136;28;20048;-73
2023/03/19 10:10:52;;;;;;;11.98;7.10;;;;;;;16.39;47.21;100470.84;5061932;28;20048;-73
2023/03/19 10:13:30;;;;;;;11.52;6.68;;;;;;;16.69;47.30;100472.56;5064577;28;20063;-73
2023/03/19 10:15:58;;;;;;;10.65;6.53;;;;;;;16.86;46.86;100464.94;5062970;28;20475;-73
2023/03/19 10:18:28;;;;;;;13.63;7.40;;;;;;;16.95;45.25;100477.97;5062185;28;20037;-72
2023/03/19 10:21:07;;;;;;;14.77;7.25;;;;;;;16.95;44.81;100471.75;5065555;28;20020;-72
2023/03/19 10:24:03;;;;;;;13.02;7.25;;;;;;;16.95;45.44;100469.97;5062044;28;20032;-73
2023/03/19 10:26:34;;;;;;;11.15;6.55;;;;;;;16.98;45.93;100477.88;5061515;28;20505;-73
2023/03/19 10:29:08;;;;;;;14.55;7.85;;;;;;;17.02;45.93;100476.84;5061052;28;20040;-71
2023/03/19 10:31:49;;;;;;;13.07;6.97;;;;;;;16.98;46.36;100475.22;5066800;28;20029;-73
2023/03/19 10:34:40;;;;;;;9.15;6.00;;;;;;;17.24;45.33;100479.66;5066181;28;20042;-73
2023/03/19 10:37:11;;;;;;;11.32;7.18;;;;;;;17.36;45.31;100485.47;5061954;28;20036;-73
2023/03/19 10:39:38;;;;;;;13.15;6.65;;;;;;;17.39;45.44;100480.91;5061671;28;20189;-73
2023/03/19 10:42:15;;;;;;;16.00;7.07;;;;;;;17.31;44.62;100474.97;5062901;28;20395;-72
2023/03/19 10:44:49;;;;;;;11.63;7.00;;;;;;;17.40;44.42;100490.66;5063046;28;20037;-73
2023/03/19 10:47:15;;;;;;;13.30;7.13;;;;;;;17.44;44.52;100483.41;5062461;28;20051;-73
2023/03/19 10:49:41;;;;;;;14.52;8.15;;;;;;;17.55;44.41;100486.56;5061717;28;20044;-73
2023/03/19 10:52:32;;;;;;;16.30;7.85;;;;;;;17.57;44.02;100478.50;5062141;28;20040;-75
2023/03/19 10:55:13;;;;;;;14.82;7.68;;;;;;;17.60;43.61;100470.38;5065434;28;20047;-74
2023/03/19 10:57:42;;;;;;;15.35;6.88;;;;;;;17.58;45.30;100474.91;5060164;28;20041;-73
2023/03/19 11:00:24;;;;;;;11.02;6.57;;;;;;;17.64;44.44;100474.72;5059882;28;20029;-73
2023/03/19 11:02:52;;;;;;;;;;;;;;;17.76;44.19;100479.56;5063558;28;20128;-73
2023/03/19 11:05:20;;;;;;;10.75;6.53;;;;;;;17.89;43.44;100478.25;5063804;28;20003;-73
2023/03/19 11:08:02;;;;;;;13.68;7.20;;;;;;;17.63;43.68;100472.94;5060256;28;20102;-73
2023/03/19 11:10:31;;;;;;;10.70;6.97;;;;;;;17.43;44.47;100477.22;5061320;28;20037;-73
2023/03/19 11:13:22;;;;;;;13.98;7.55;;;;;;;17.59;44.78;100476.66;5065525;28;20510;-73
2023/03/19 11:15:48;;;;;;;14.68;8.00;;;;;;;17.70;44.67;100475.34;5061930;28;20418;-73
2023/03/19 11:18:26;;;;;;;15.85;7.72;;;;;;;17.73;44.04;100477.03;5063272;28;20029;-73
2023/03/19 11:21:00;;;;;;;13.93;8.20;;;;;;;17.69;44.25;100473.59;5059328;28;20063;-72
2023/03/19 11:23:30;;;;;;;12.98;7.18;;;;;;;17.79;44.43;100479.53;5063402;28;20452;-72
2023/03/19 11:26:00;;;;;;;16.13;8.25;;;;;;;17.72;44.12;100473.50;5061493;28;20068;-73
2023/03/19 11:28:31;;;;;;;12.07;6.47;;;;;;;17.80;44.85;100473.25;5063449;28;20037;-73
2023/03/19 11:31:22;;;;;;;11.60;7.55;;;;;;;17.64;44.96;100466.69;5063085;28;20044;-72